Terminal Aerodrome Forecast
Issued by NWS

Home | Current Version | Previous Version | Text Only | Print | Product List | Glossary On
Versions: 1 2 3 4 5 6 7 8 9 10 11 12 13 14 15 16 17 18 19 20 21
517
FTAK31 PAJN 240520
TAFAKT
TAF
PAKT 240520Z 2406/2506 16006KT 6SM -SHRA OVC035
     FM240800 15005KT P6SM VCSH OVC035
     FM241200 12006KT P6SM BCFG SCT005 BKN050
      TEMPO 2412/2416 4SM BR
     FM250000 13010KT P6SM VCSH SCT025 OVC040
      AMD LTD TO CLD VIS AND WIND 2406/2415=

USA.gov is the U.S. government's official web portal to all federal, state and local government web resources and services.